Latest Weather Observations for Lucas Heights

IDN60901

Issued at 2:45 am EDT Monday 24 November 2014 (issued every 10 minutes, with the page automatically refreshed every 10 minutes)

About weather observations | Map of Sydney area stations | Latest observations for Sydney area | Other Formats
Station Details ID: 066023 Name: LUCAS HEIGHTS AWS Lat: -34.05 Lon: 150.98 Height: 140.0 m
Data from the previous 72 hours. | See also: Recent months for locations in New South Wales
Date/Time
EDT
Tmp

°C
App
Tmp
°C
Dew
Point
°C
Rel
Hum
%
Delta-T

°C
Wind Press
QNH
hPa
Press
MSL
hPa
Rain
since
9 am
mm
Dir
 
Spd
km/h
Gust
km/h
Spd
kts
Gust
kts
24/02:30am 20.2 21.0 18.2 88 1.2 SSE 11 15 6 8 1012.4 - 0.0
24/02:15am 20.2 20.6 18.2 88 1.2 SSE 13 15 7 8 1013.0 - 0.0
24/02:00am 20.2 21.4 18.2 88 1.2 SSE 9 15 5 8 1013.2 - 0.0
24/01:45am 20.3 21.5 18.2 88 1.3 SSW 9 13 5 7 1013.4 - 0.0
24/01:30am 20.4 21.3 18.3 88 1.3 SSW 11 15 6 8 1013.6 - 0.0
24/01:15am 20.2 19.8 18.0 87 1.4 SSW 17 26 9 14 1014.0 - 0.0
24/01:00am 20.4 20.8 18.2 87 1.4 S 13 22 7 12 1014.0 - 0.0
24/12:45am 20.5 22.7 18.3 87 1.4 SW 4 9 2 5 1014.1 - 0.0
24/12:30am 20.4 20.9 18.3 88 1.3 WSW 13 20 7 11 1014.5 - 0.0
24/12:15am 20.4 20.1 18.2 87 1.4 WSW 17 28 9 15 1014.2 - 0.0
24/12:00am 20.4 21.1 18.0 86 1.5 S 11 15 6 8 1013.6 - 0.0
 
Date/Time
EDT
Tmp

°C
App
Tmp
°C
Dew
Point
°C
Rel
Hum
%
Delta-T

°C
Wind Press
QNH
hPa
Press
MSL
hPa
Rain
since
9 am
mm
Dir
 
Spd
km/h
Gust
km/h
Spd
kts
Gust
kts
23/11:45pm 20.7 21.9 18.2 85 1.6 ESE 9 15 5 8 1013.8 - 0.0
23/11:30pm 20.6 22.4 18.2 86 1.5 W 6 11 3 6 1014.4 - 0.0
23/11:15pm 20.5 20.9 18.2 87 1.4 W 13 22 7 12 1014.6 - 0.0
23/11:00pm 20.4 21.5 18.0 86 1.5 S 9 15 5 8 1013.7 - 0.0
23/10:45pm 20.4 21.9 18.1 87 1.4 SE 7 15 4 8 1013.7 - 0.0
23/10:30pm 20.4 19.1 18.1 87 1.4 SSE 22 35 12 19 1013.3 - 0.0
23/10:15pm 20.4 17.9 18.0 86 1.5 SSE 28 39 15 21 1013.0 - 0.0
23/10:00pm 20.4 17.9 18.1 87 1.4 SSE 28 43 15 23 1012.8 - 0.0
23/09:45pm 20.4 18.4 18.2 87 1.4 SSE 26 39 14 21 1012.9 - 0.0
23/09:30pm 20.5 17.7 18.3 87 1.4 SSE 30 41 16 22 1013.0 - 0.0
23/09:15pm 20.8 18.5 18.4 86 1.5 SSE 28 41 15 22 1012.9 - 0.0
23/09:00pm 20.9 20.8 18.7 87 1.4 SSE 17 24 9 13 1012.8 - 0.0
23/08:45pm 20.8 18.6 18.6 87 1.4 SSE 28 44 15 24 1013.0 - 0.0
23/08:30pm 20.9 19.4 18.6 87 1.4 SSE 24 37 13 20 1013.3 - 0.0
23/08:15pm 21.0 19.6 18.7 87 1.5 S 24 39 13 21 1012.8 - 0.0
23/08:00pm 21.0 20.2 18.5 85 1.6 SSE 20 30 11 16 1012.0 - 0.0
23/07:45pm 21.1 19.2 18.5 85 1.6 S 26 37 14 20 1011.1 - 0.0
23/07:30pm 21.2 18.2 18.6 85 1.6 S 32 44 17 24 1010.6 - 0.0
23/07:15pm 21.1 17.8 18.4 84 1.7 S 33 52 18 28 1009.6 - 0.0
23/07:00pm 21.3 16.4 18.2 82 1.9 SSE 41 56 22 30 1009.0 - 0.0
23/06:45pm 22.3 18.6 18.4 78 2.5 SSE 35 50 19 27 1008.6 - 0.0
23/06:30pm 23.5 20.6 18.8 75 3.0 SE 32 41 17 22 1008.3 - 0.0
23/06:15pm 24.4 21.9 18.8 71 3.6 SE 30 43 16 23 1008.3 - 0.0
23/06:00pm 25.4 23.8 19.3 69 3.9 SE 26 39 14 21 1008.1 - 0.0
23/05:45pm 25.2 23.3 19.4 70 3.7 SE 28 37 15 20 1007.6 - 0.0
23/05:30pm 25.5 23.6 19.3 68 4.0 ESE 28 37 15 20 1007.6 - 0.0
23/05:15pm 26.7 26.1 19.7 65 4.6 ESE 22 33 12 18 1007.7 - 0.0
23/05:00pm 27.0 26.1 19.8 64 4.7 ESE 24 32 13 17 1007.7 - 0.0
23/04:45pm 27.5 26.8 19.4 61 5.3 ESE 22 35 12 19 1007.6 - 0.0
23/04:30pm 28.7 28.7 19.7 58 5.9 E 19 32 10 17 1007.4 - 0.0
23/04:15pm 28.9 28.8 19.6 57 6.1 E 19 26 10 14 1007.3 - 0.0
23/04:00pm 30.1 29.3 20.0 54 6.7 ESE 24 32 13 17 1007.8 - 0.0
23/03:45pm 32.9 32.3 20.4 47 8.4 ESE 24 33 13 18 1008.1 - 0.0
23/03:30pm 33.2 33.9 20.4 47 8.6 ESE 17 22 9 12 1007.7 - 0.0
23/03:15pm 33.6 35.1 20.6 46 8.7 E 13 24 7 13 1007.9 - 0.0
23/03:00pm 33.7 35.3 20.7 46 8.8 E 13 20 7 11 1008.0 - 0.0
23/02:45pm 34.1 35.3 20.6 45 9.1 ENE 15 22 8 12 1008.0 - 0.0
23/02:30pm 34.6 35.9 20.9 44 9.3 ENE 15 22 8 12 1008.1 - 0.0
23/02:15pm 34.9 35.8 20.8 43 9.5 ENE 17 22 9 12 1008.2 - 0.0
23/02:00pm 34.7 35.7 21.1 45 9.2 ENE 17 24 9 13 1008.4 - 0.0
23/01:45pm 34.6 35.9 20.9 44 9.3 ENE 15 22 8 12 1008.7 - 0.0
23/01:30pm 34.3 35.4 20.4 44 9.3 ENE 15 19 8 10 1009.0 - 0.0
23/01:15pm 34.0 35.4 20.4 45 9.1 ENE 13 19 7 10 1009.3 - 0.0
23/01:00pm 33.6 34.9 20.1 45 9.0 ENE 13 15 7 8 1009.5 - 0.0
23/12:45pm 33.0 34.2 19.9 46 8.7 ENE 13 19 7 10 1009.9 - 0.0
23/12:30pm 32.9 34.2 20.2 47 8.5 ENE 13 19 7 10 1010.0 - 0.0
23/12:15pm 32.9 33.4 18.4 42 9.5 ENE 13 19 7 10 1010.3 - 0.0
23/12:00pm 32.8 33.4 18.6 43 9.3 NE 13 17 7 9 1010.6 - 0.0
23/11:45am 32.4 33.8 19.5 46 8.5 ENE 11 17 6 9 1010.8 - 0.0
23/11:30am 32.1 33.8 19.4 47 8.4 ENE 9 15 5 8 1010.9 - 0.0
23/11:15am 31.5 33.2 19.3 48 8.0 ENE 9 15 5 8 1011.0 - 0.0
23/11:00am 31.0 33.0 19.2 49 7.7 NE 7 13 4 7 1010.9 - 0.0
23/10:45am 30.5 32.7 19.3 51 7.3 NE 6 11 3 6 1011.0 - 0.0
23/10:30am 29.7 31.6 18.6 51 7.2 N 6 9 3 5 1011.2 - 0.0
23/10:15am 29.2 31.6 18.7 53 6.8 NW 4 7 2 4 1011.3 - 0.0
23/10:00am 28.0 30.3 18.5 56 6.1 NW 4 9 2 5 1011.3 - 0.0
23/09:45am 27.2 29.3 18.9 60 5.4 WNW 6 11 3 6 1011.3 - 0.0
23/09:30am 26.0 28.0 18.8 64 4.6 W 6 13 3 7 1011.4 - 0.0
23/09:15am 24.8 26.1 18.5 68 4.0 W 9 13 5 7 1011.5 - 0.0
23/09:00am 23.7 24.6 18.4 72 3.4 W 11 15 6 8 1011.6 - 0.0
23/08:45am 22.6 23.0 18.1 76 2.8 W 13 19 7 10 1011.6 - 0.0
23/08:30am 21.9 22.7 18.2 79 2.3 W 11 19 6 10 1011.5 - 0.0
23/08:15am 21.1 21.8 17.9 82 2.0 W 11 15 6 8 1011.4 - 0.0
23/08:00am 20.4 20.2 17.5 83 1.8 W 15 20 8 11 1011.5 - 0.0
23/07:45am 20.2 20.4 17.6 85 1.6 W 13 22 7 12 1011.3 - 0.0
23/07:30am 19.9 19.7 17.7 87 1.4 WNW 15 22 8 12 1011.1 - 0.0
23/07:15am 19.1 19.9 17.3 89 1.1 W 9 13 5 7 1010.9 - 0.0
23/07:00am 18.1 18.1 16.3 89 1.1 W 11 15 6 8 1011.0 - 0.0
23/06:45am 18.2 18.3 16.4 89 1.1 W 11 19 6 10 1011.0 - 0.0
23/06:30am 18.0 17.6 16.2 89 1.1 W 13 17 7 9 1011.0 - 0.0
23/06:15am 18.0 16.8 16.2 89 1.1 W 17 20 9 11 1011.1 - 0.0
23/06:00am 18.0 17.2 16.2 89 1.1 W 15 19 8 10 1011.0 - 0.0
23/05:45am 17.9 17.1 16.0 89 1.1 W 15 19 8 10 1010.8 - 0.0
23/05:30am 18.0 17.6 16.1 89 1.1 W 13 15 7 8 1010.5 - 0.0
23/05:15am 18.2 17.8 16.2 88 1.2 WSW 13 15 7 8 1010.4 - 0.0
23/05:00am 18.1 17.3 16.0 87 1.3 W 15 17 8 9 1010.5 - 0.0
23/04:45am 18.7 18.4 16.5 87 1.3 W 13 17 7 9 1010.4 - 0.0
23/04:30am 19.3 18.6 17.4 89 1.2 W 17 20 9 11 1010.6 - 0.0
23/04:15am 19.2 19.0 17.5 90 1.0 W 15 19 8 10 1010.6 - 0.0
23/04:00am 17.8 17.4 16.1 90 1.0 W 13 17 7 9 1010.6 - 0.0
23/03:45am 18.2 18.3 16.5 90 1.0 W 11 15 6 8 1010.7 - 0.0
23/03:30am 18.3 17.7 16.6 90 1.0 WSW 15 19 8 10 1011.0 - 0.0
23/03:15am 18.1 17.8 16.4 90 1.0 WSW 13 17 7 9 1010.8 - 0.0
23/03:00am 18.1 17.0 16.3 89 1.1 WSW 17 22 9 12 1011.0 - 0.0
23/02:45am 18.2 17.1 16.4 89 1.1 WSW 17 22 9 12 1011.3 - 0.0
23/02:30am 18.4 18.2 16.6 89 1.1 W 13 15 7 8 1011.3 - 0.0
23/02:15am 18.8 18.7 17.0 89 1.1 W 13 17 7 9 1011.6 - 0.0
23/02:00am 18.7 18.7 17.1 90 1.0 W 13 15 7 8 1011.7 - 0.0
23/01:45am 18.6 19.2 16.9 90 1.0 WNW 9 13 5 7 1011.8 - 0.0
23/01:30am 18.5 18.7 16.8 90 1.0 WNW 11 13 6 7 1012.0 - 0.0
23/01:15am 18.4 18.5 16.5 89 1.1 WNW 11 13 6 7 1012.3 - 0.0
23/01:00am 18.5 19.1 16.7 89 1.1 WNW 9 11 5 6 1012.5 - 0.0
23/12:45am 18.7 19.3 16.9 89 1.1 WNW 9 11 5 6 1012.8 - 0.0
23/12:30am 18.7 19.3 16.9 89 1.1 NW 9 13 5 7 1012.9 - 0.0
23/12:15am 18.8 19.5 17.0 89 1.1 NW 9 13 5 7 1013.1 - 0.0
23/12:00am 18.7 19.4 17.0 90 1.0 NW 9 13 5 7 1013.4 - 0.0
 
Date/Time
EDT
Tmp

°C
App
Tmp
°C
Dew
Point
°C
Rel
Hum
%
Delta-T

°C
Wind Press
QNH
hPa
Press
MSL
hPa
Rain
since
9 am
mm
Dir
 
Spd
km/h
Gust
km/h
Spd
kts
Gust
kts
22/11:45pm 18.5 19.4 16.7 89 1.1 NNW 7 11 4 6 1013.1 - 0.0
22/11:30pm 18.6 19.7 16.7 89 1.1 N 6 11 3 6 1013.2 - 0.0
22/11:15pm 18.7 19.9 16.8 89 1.2 N 6 9 3 5 1013.4 - 0.0
22/11:00pm 18.7 19.2 16.6 87 1.3 NNE 9 13 5 7 1013.4 - 0.0
22/10:45pm 18.9 19.9 16.8 87 1.3 NNE 7 13 4 7 1013.5 - 0.0
22/10:30pm 18.8 19.7 16.7 87 1.3 NNE 7 11 4 6 1013.7 - 0.0
22/10:15pm 18.8 19.9 16.6 87 1.3 NE 6 6 3 3 1013.7 - 0.0
22/10:00pm 19.0 20.2 16.8 87 1.3 N 6 9 3 5 1013.6 - 0.0
22/09:45pm 19.1 20.1 16.8 86 1.4 NNE 7 9 4 5 1013.5 - 0.0
22/09:30pm 19.2 20.8 16.8 86 1.5 NNE 4 7 2 4 1013.3 - 0.0
22/09:15pm 19.3 20.9 16.8 85 1.5 E 4 6 2 3 1013.1 - 0.0
22/09:00pm 19.5 21.4 16.8 84 1.6 ESE 2 6 1 3 1012.9 - 0.0
22/08:45pm 19.7 20.9 16.9 84 1.7 NNE 6 9 3 5 1012.6 - 0.0
22/08:30pm 19.9 21.0 17.0 83 1.8 NNE 7 15 4 8 1012.4 - 0.0
22/08:15pm 20.0 19.9 17.0 83 1.8 NE 13 20 7 11 1012.2 - 0.0
22/08:00pm 20.2 19.7 17.0 82 2.0 NE 15 19 8 10 1011.9 - 0.0
22/07:45pm 20.4 20.3 17.0 81 2.1 NE 13 19 7 10 1011.8 - 0.0
22/07:30pm 20.7 21.0 17.1 80 2.2 ENE 11 13 6 7 1011.8 - 0.0
22/07:15pm 20.8 20.7 16.9 78 2.4 ENE 13 15 7 8 1011.6 - 0.0
22/07:00pm 21.2 21.1 16.9 76 2.6 ENE 13 19 7 10 1011.4 - 0.0
22/06:45pm 21.2 20.2 16.7 75 2.7 ENE 17 22 9 12 1011.2 - 0.0
22/06:30pm 21.6 20.6 16.6 73 3.1 ENE 17 22 9 12 1011.1 - 0.0
22/06:15pm 21.7 20.6 16.3 71 3.3 ENE 17 24 9 13 1011.1 - 0.0
22/06:00pm 22.0 20.6 16.5 71 3.4 ENE 19 30 10 16 1011.0 - 0.0
22/05:45pm 22.4 21.3 16.4 69 3.7 E 17 22 9 12 1010.9 - 0.0
22/05:30pm 22.9 21.9 16.5 67 3.9 E 17 26 9 14 1010.9 - 0.0
22/05:15pm 22.9 22.3 16.6 67 3.9 E 15 19 8 10 1011.0 - 0.0
22/05:00pm 22.8 22.0 16.2 66 4.0 E 15 20 8 11 1010.9 - 0.0
22/04:45pm 23.1 21.9 16.0 64 4.3 E 17 22 9 12 1010.9 - 0.0
22/04:30pm 23.4 22.2 16.2 64 4.4 E 17 22 9 12 1011.0 - 0.0
22/04:15pm 23.5 22.2 15.9 62 4.6 E 17 22 9 12 1010.9 - 0.0
22/04:00pm 24.4 23.7 16.5 61 4.9 E 15 19 8 10 1010.9 - 0.0
22/03:45pm 23.8 23.1 16.3 63 4.6 ENE 15 22 8 12 1011.1 - 0.0
22/03:30pm 24.0 22.8 16.1 61 4.8 E 17 24 9 13 1011.1 - 0.0
22/03:15pm 24.4 23.3 16.3 60 5.0 E 17 26 9 14 1011.4 - 0.0
22/03:00pm 24.8 24.0 16.0 58 5.4 E 15 22 8 12 1011.6 - 0.0
22/02:45pm 25.6 24.5 16.4 56 5.7 ENE 17 24 9 13 1011.7 - 0.0
22/02:30pm 25.6 24.4 16.2 56 5.8 ENE 17 22 9 12 1012.0 - 0.0
22/02:15pm 25.8 24.6 16.1 55 6.0 ENE 17 24 9 13 1012.4 - 0.0
22/02:00pm 26.7 25.6 16.3 53 6.4 ENE 17 26 9 14 1012.6 - 0.0
22/01:45pm 26.7 25.8 15.9 51 6.7 NE 15 22 8 12 1012.8 - 0.0
22/01:30pm 27.0 27.2 15.8 50 6.9 NNE 9 17 5 9 1012.9 - 0.0
22/01:15pm 26.3 26.0 15.4 51 6.7 ENE 11 19 6 10 1013.2 - 0.0
22/01:00pm 25.7 25.6 15.0 51 6.5 NNE 9 24 5 13 1013.5 - 0.0
22/12:45pm 25.3 24.4 14.9 52 6.3 N 13 19 7 10 1013.7 - 0.0
22/12:30pm 25.0 24.4 14.7 52 6.2 NNE 11 20 6 11 1014.0 - 0.0
22/12:15pm 24.9 24.3 14.7 53 6.1 NE 11 19 6 10 1014.1 - 0.0
22/12:00pm 24.4 23.7 14.3 53 6.0 - 11 22 6 12 1014.4 - 0.0
22/11:45am 24.2 23.2 14.5 54 5.8 NNE 13 24 7 13 1014.6 - 0.0
22/11:30am 23.5 23.5 14.1 55 5.6 NNE 7 19 4 10 1015.0 - 0.0
22/11:15am 23.0 22.6 14.1 57 5.2 NNE 9 17 5 9 1015.1 - 0.0
22/11:00am 22.8 21.5 13.7 56 5.3 N 13 22 7 12 1015.2 - 0.0
22/10:45am 23.0 21.7 13.7 55 5.4 NE 13 26 7 14 1015.0 - 0.0
22/10:30am 22.8 21.4 13.5 55 5.4 NE 13 19 7 10 1015.2 - 0.0
22/10:15am 22.4 21.3 13.2 56 5.3 ENE 11 17 6 9 1015.6 - 0.0
22/10:00am 22.6 22.4 13.5 56 5.3 ENE 7 15 4 8 1016.1 - 0.0
22/09:45am 21.8 22.0 13.2 58 5.0 N 4 9 2 5 1016.3 - 0.0
22/09:30am 21.8 21.6 12.9 57 5.1 ENE 6 13 3 7 1016.3 - 0.0
22/09:15am 21.4 21.3 13.4 60 4.6 ESE 6 13 3 7 1016.2 - 0.0
22/09:00am 20.9 20.0 13.7 63 4.2 ESE 11 19 6 10 1016.0 - 0.0
22/08:45am 20.8 20.8 14.2 66 3.9 SSE 7 15 4 8 1015.9 - 0.0
22/08:30am 20.5 20.2 14.5 68 3.5 SE 9 13 5 7 1015.8 - 0.0
22/08:15am 19.9 19.6 14.5 71 3.2 SE 9 15 5 8 1015.9 - 0.0
22/08:00am 19.5 19.3 14.8 74 2.8 SE 9 15 5 8 1016.1 - 0.0
22/07:45am 19.3 19.6 15.1 76 2.5 SE 7 15 4 8 1015.9 - 0.0
22/07:30am 19.1 19.7 15.7 80 2.0 S 7 13 4 7 1015.8 - 0.0
22/07:15am 18.5 19.4 16.1 86 1.4 S 6 9 3 5 1015.8 - 0.0
22/07:00am 17.6 18.4 15.8 89 1.1 S 6 9 3 5 1015.6 - 0.0
22/06:45am 16.5 17.0 14.9 90 0.9 S 6 9 3 5 1015.5 - 0.0
22/06:30am 15.8 16.0 14.1 90 1.0 SSE 6 9 3 5 1015.3 - 0.0
22/06:15am 15.4 15.4 13.6 89 1.0 SE 6 9 3 5 1015.1 - 0.0
22/06:00am 15.3 15.2 13.4 88 1.1 SSE 6 9 3 5 1015.1 - 0.0
22/05:45am 15.4 15.1 13.3 87 1.2 S 7 11 4 6 1014.8 - 0.0
22/05:30am 15.7 15.1 13.6 87 1.2 S 9 13 5 7 1014.5 - 0.0
22/05:15am 16.2 15.4 14.1 87 1.2 S 11 13 6 7 1014.4 - 0.0
22/05:00am 16.2 16.2 14.1 87 1.2 SSW 7 9 4 5 1014.2 - 0.0
22/04:45am 16.1 16.0 13.8 86 1.3 S 7 9 4 5 1014.1 - 0.0
22/04:30am 16.5 16.5 14.1 86 1.4 S 7 9 4 5 1014.1 - 0.0
22/04:15am 16.7 16.9 14.2 85 1.4 SSE 6 9 3 5 1014.0 - 0.0
22/04:00am 16.9 16.9 14.2 84 1.6 SSE 7 9 4 5 1014.1 - 0.0
22/03:45am 17.2 17.4 14.3 83 1.7 S 6 9 3 5 1014.1 - 0.0
22/03:30am 17.7 17.5 14.6 82 1.8 SSE 9 17 5 9 1014.1 - 0.0
22/03:15am 18.0 17.4 14.7 81 1.9 SSE 11 15 6 8 1014.1 - 0.0
22/03:00am 18.2 17.3 14.8 80 2.0 SSE 13 19 7 10 1014.2 - 0.0
22/02:45am 18.3 17.8 14.9 80 2.0 SSE 11 19 6 10 1014.3 - 0.0
22/02:30am 18.4 17.1 14.9 80 2.0 SSE 15 20 8 11 1014.4 - 0.0
22/02:15am 18.4 17.2 15.0 80 2.0 SSE 15 24 8 13 1014.4 - 0.0
22/02:00am 18.5 16.6 15.1 80 2.0 SSE 19 26 10 14 1014.4 - 0.0
22/01:45am 18.5 17.0 15.2 81 1.9 SSE 17 24 9 13 1014.5 - 0.0
22/01:30am 18.5 17.4 15.2 81 1.9 SSE 15 24 8 13 1014.5 - 0.0
22/01:15am 18.4 16.8 15.0 80 2.0 S 17 26 9 14 1014.6 - 0.0
22/01:00am 18.6 16.5 15.3 81 1.9 S 20 32 11 17 1014.6 - 0.0
22/12:45am 18.5 17.3 15.1 80 2.0 S 15 28 8 15 1014.6 - 0.0
22/12:30am 18.5 17.0 15.2 81 1.9 S 17 33 9 18 1014.6 - 0.0
22/12:15am 18.6 16.2 15.3 81 1.9 S 22 33 12 18 1014.6 - 0.0
22/12:00am 18.7 16.7 15.5 81 1.9 SSE 20 33 11 18 1014.4 - 0.0
 
Date/Time
EDT
Tmp

°C
App
Tmp
°C
Dew
Point
°C
Rel
Hum
%
Delta-T

°C
Wind Press
QNH
hPa
Press
MSL
hPa
Rain
since
9 am
mm
Dir
 
Spd
km/h
Gust
km/h
Spd
kts
Gust
kts
21/11:45pm 18.9 15.4 15.6 81 2.0 SSE 28 44 15 24 1014.1 - 0.0
21/11:30pm 19.0 14.6 15.7 81 2.0 SSE 33 46 18 25 1013.9 - 0.0
21/11:15pm 19.1 14.3 15.7 80 2.0 SSE 35 50 19 27 1013.8 - 0.0
21/11:00pm 19.2 13.7 15.8 81 2.0 SSE 39 54 21 29 1013.5 - 0.0
21/10:45pm 19.3 13.9 16.1 82 1.9 SSE 39 52 21 28 1013.5 - 0.0
21/10:30pm 19.4 14.9 16.3 82 1.9 SSE 35 54 19 29 1013.4 - 0.0
21/10:15pm 19.5 15.0 16.4 82 1.9 SSE 35 50 19 27 1013.3 - 0.0
21/10:00pm 19.6 15.1 16.5 82 1.9 SSE 35 52 19 28 1013.2 - 0.0
21/09:45pm 19.6 14.8 16.6 83 1.8 SSE 37 54 20 29 1012.9 - 0.0
21/09:30pm 19.7 14.5 16.6 82 1.9 SSE 39 54 21 29 1012.6 - 0.0
21/09:15pm 19.8 15.4 16.7 82 1.9 SSE 35 52 19 28 1012.3 - 0.0
21/09:00pm 19.9 15.6 16.8 82 1.9 SSE 35 56 19 30 1011.9 - 0.0
21/08:45pm 20.1 15.4 16.8 81 2.0 SSE 37 54 20 29 1011.5 - 0.0
21/08:30pm 20.3 16.5 16.7 80 2.2 SSE 32 46 17 25 1011.1 - 0.0
21/08:15pm 20.4 15.6 16.5 78 2.4 SSE 37 56 20 30 1010.7 - 0.0
21/08:00pm 20.7 15.8 16.3 76 2.7 SSE 37 57 20 31 1010.2 - 0.0
21/07:45pm 21.0 15.2 16.1 73 3.0 SSE 41 57 22 31 1009.8 - 0.0
21/07:30pm 21.3 15.1 16.0 72 3.2 SSE 43 56 23 30 1009.4 - 0.0
21/07:15pm 21.6 16.2 16.0 70 3.4 SSE 39 57 21 31 1009.0 - 0.0
21/07:00pm 22.0 16.4 16.4 70 3.4 SSE 41 61 22 33 1008.6 - 0.0
21/06:45pm 22.4 16.6 16.9 71 3.4 SSE 43 63 23 34 1008.2 - 0.0
21/06:30pm 23.0 17.5 17.6 71 3.4 SSE 43 63 23 34 1007.8 - 0.0
21/06:15pm 23.7 19.2 18.2 71 3.5 SSE 39 63 21 34 1007.3 - 0.0
21/06:00pm 25.4 21.5 17.8 62 4.8 SSE 35 57 19 31 1006.9 - 0.0
21/05:45pm 28.0 27.3 18.3 55 6.2 SE 19 41 10 22 1006.3 - 0.0
21/05:30pm 28.8 28.0 18.5 53 6.6 ESE 20 30 11 16 1005.7 - 0.0
21/05:15pm 29.2 27.3 17.6 49 7.4 ESE 24 33 13 18 1005.5 - 0.0
21/05:00pm 30.4 29.7 17.4 45 8.3 E 17 28 9 15 1005.4 - 0.0
21/04:45pm 30.9 29.4 16.4 41 9.1 E 19 30 10 16 1005.1 - 0.0
21/04:30pm 34.1 32.4 14.8 31 12.0 E 17 37 9 20 1004.9 - 0.0
21/04:15pm 37.5 31.3 4.5 13 17.9 W 26 46 14 25 1004.7 - 0.0
21/04:00pm 37.4 29.5 4.2 13 17.9 WSW 35 52 19 28 1004.6 - 0.0
21/03:45pm 37.6 30.3 4.6 13 17.9 W 32 50 17 27 1004.5 - 0.0
21/03:30pm 37.5 31.0 4.5 13 17.9 W 28 57 15 31 1004.5 - 0.0
21/03:15pm 37.6 32.6 4.6 13 17.9 W 20 54 11 29 1004.5 - 0.0
21/03:00pm 37.5 31.3 4.3 13 17.9 W 26 44 14 24 1004.6 - 0.0
21/02:45pm 37.6 31.8 4.3 13 18.0 W 24 39 13 21 1004.7 - 0.0
21/02:30pm 37.5 30.5 4.0 12 18.0 W 30 48 16 26 1004.7 - 0.0
21/02:15pm 37.6 30.6 4.3 13 18.0 WNW 30 46 16 25 1004.7 - 0.0
21/02:00pm 37.3 29.4 4.2 13 17.8 W 35 52 19 28 1004.8 - 0.0
21/01:45pm 37.4 29.5 4.1 12 17.9 W 35 61 19 33 1004.9 - 0.0
21/01:30pm 37.3 30.8 4.8 13 17.6 W 28 50 15 27 1005.0 - 0.0
21/01:15pm 36.8 29.3 4.5 13 17.4 WNW 33 52 18 28 1005.1 - 0.0
21/01:00pm 36.7 29.2 4.6 13 17.3 WNW 33 56 18 30 1005.2 - 0.0
21/12:45pm 36.5 30.1 5.1 14 17.1 W 28 50 15 27 1005.4 - 0.0
21/12:30pm 36.1 28.8 5.4 15 16.7 WNW 33 46 18 25 1005.5 - 0.0
21/12:15pm 35.6 31.1 8.5 19 15.4 WNW 22 46 12 25 1005.6 - 0.0
21/12:00pm 34.1 33.8 13.4 28 12.6 N 7 26 4 14 1005.8 - 0.0
21/11:45am 33.6 31.9 13.5 29 12.2 NNE 15 28 8 15 1005.9 - 0.0
21/11:30am 33.0 31.4 13.8 31 11.7 NNE 15 26 8 14 1006.2 - 0.0
21/11:15am 33.0 31.2 13.2 30 12.0 NNE 15 26 8 14 1006.5 - 0.0
21/11:00am 32.6 31.5 13.2 30 11.7 N 11 22 6 12 1006.7 - 0.0
21/10:45am 32.3 31.0 12.4 29 11.9 N 11 22 6 12 1006.8 - 0.0
21/10:30am 31.6 29.5 12.3 30 11.5 N 15 26 8 14 1006.9 - 0.0
21/10:15am 31.1 29.4 12.4 31 11.1 N 13 20 7 11 1007.1 - 0.0
21/10:00am 30.4 28.8 12.7 33 10.5 - 13 26 7 14 1007.2 - 0.0
21/09:45am 30.1 29.8 14.3 38 9.6 N 9 22 5 12 1007.3 - 0.0
21/09:30am 29.2 28.7 14.8 41 8.8 N 11 19 6 10 1007.4 - 0.0
21/09:15am 28.8 29.0 15.7 45 8.1 NNW 9 19 5 10 1007.6 - 0.0
21/09:00am 27.9 27.8 15.9 48 7.4 NNW 11 19 6 10 1007.6 - 0.0
21/08:45am 26.8 26.4 15.2 49 7.1 NNW 11 19 6 10 1007.5 - 0.0
21/08:30am 26.7 26.5 14.7 47 7.3 NW 9 15 5 8 1007.1 - 0.0
21/08:15am 26.5 26.5 14.3 47 7.3 NW 7 11 4 6 1006.9 - 0.0
21/08:00am 25.9 25.8 14.9 50 6.6 NW 9 13 5 7 1006.9 - 0.0
21/07:45am 23.7 23.9 14.7 57 5.4 NNW 7 11 4 6 1006.9 - 0.0
21/07:30am 22.9 21.7 12.7 52 5.9 N 11 13 6 7 1006.7 - 0.0
21/07:15am 24.6 22.4 10.9 42 7.7 NW 13 20 7 11 1006.5 - 0.0
21/07:00am 26.7 23.1 9.9 34 9.4 W 19 24 10 13 1006.3 - 0.0
21/06:45am 24.6 22.5 11.1 42 7.6 WSW 13 19 7 10 1006.3 - 0.0
21/06:30am 24.4 23.6 11.2 43 7.5 SE 6 13 3 7 1006.4 - 0.0
21/06:15am 25.3 23.9 10.8 40 8.2 WSW 9 17 5 9 1007.0 - 0.0
21/06:00am 25.9 22.6 10.8 38 8.5 SSW 19 24 10 13 1007.1 - 0.0
21/05:45am 25.4 21.9 12.1 43 7.7 S 22 37 12 20 1006.5 - 0.0
21/05:30am 24.4 19.7 14.4 53 6.0 SSW 32 57 17 31 1007.2 - 0.0
21/05:15am 24.3 20.0 15.8 59 5.2 W 33 50 18 27 1007.8 - 0.0
21/05:00am 24.4 20.5 16.9 63 4.7 W 33 46 18 25 1007.1 - 0.0
21/04:45am 25.7 24.6 17.4 60 5.2 WNW 19 41 10 22 1005.9 - 0.0
21/04:30am 21.4 21.7 17.0 76 2.7 W 11 35 6 19 1005.7 - 0.0
21/04:15am 21.4 21.7 17.0 76 2.7 WNW 11 15 6 8 1005.5 - 0.0
21/04:00am 21.1 21.8 17.0 77 2.5 NW 9 13 5 7 1005.5 - 0.0
21/03:45am 20.8 21.7 16.7 77 2.5 WSW 7 13 4 7 1005.6 - 0.0
21/03:30am 20.8 19.8 16.7 77 2.5 WSW 17 20 9 11 1005.9 - 0.0
21/03:15am 20.9 19.5 16.9 78 2.4 SW 20 28 11 15 1006.1 - 0.0
21/03:00am 20.4 18.5 16.8 80 2.2 SW 22 30 12 16 1006.3 - 0.0

Latest Capital City Observations: Canberra | Sydney | Melbourne | Brisbane | Adelaide | Perth | Hobart | Darwin

Other Formats:

Comma delimited format used in spreadsheet applications
http://www.bom.gov.au/fwo/IDN60901/IDN60901.95757.axf

JavaScript Object Notation format (JSON) in row-major order
http://www.bom.gov.au/fwo/IDN60901/IDN60901.95757.json